Have a Safe July 4th! 

Flight Track Log - Related Links

Times and Time Zones

All times are in EST time to prevent confusion due to time zone crossing. See the N10EH flight status page for this flight to view local times or setup timezone preferences in your user account.

Time Position Orientation Groundspeed Altitude Reporting Facility
EST Latitude Longitude Course Direction KTS MPH feet Rate Location/Type
Tue 02:29:02 PM 38.7681 -97.6461 121° Southeast 225 259 2,600  Level Kansas City Center
Tue 02:30:04 PM 38.7203 -97.5961 141° Southeast 234 269 4,600 2,000 Climbing Kansas City Center
Tue 02:31:05 PM 38.6861 -97.5050 116° Southeast 269 310 6,700 2,390 Climbing Kansas City Center
Tue 02:32:07 PM 38.6367 -97.4178 126° Southeast 289 333 9,500 2,468 Climbing Kansas City Center
Tue 02:33:09 PM 38.5869 -97.3228 124° Southeast 329 379 11,800 2,710 Climbing Kansas City Center
Tue 02:34:00 PM 38.3784 -96.8702 121° Southeast  Level FlightAware Approximate
Tue 02:34:11 PM 38.5275 -97.2056 123° Southeast 375 432 15,100  Level Kansas City Center
Tue 02:35:12 PM 38.4653 -97.0839 123° Southeast 393 452 18,200 3,024 Climbing Kansas City Center
Tue 02:36:14 PM 38.3983 -96.9550 124° Southeast 416 479 21,300 2,323 Climbing Kansas City Center
Tue 02:37:16 PM 38.3269 -96.8175 123° Southeast 444 511 23,000 1,935 Climbing Kansas City Center
Tue 02:38:18 PM 38.2531 -96.6764 124° Southeast 458 527 25,300 2,390 Climbing Kansas City Center
Tue 02:39:19 PM 38.1842 -96.5439 123° Southeast 465 535 27,900 2,390 Climbing Kansas City Center
Tue 02:40:21 PM 38.1067 -96.3964 124° Southeast 484 557 30,200 2,274 Climbing Kansas City Center
Tue 02:41:23 PM 38.0250 -96.2422 124° Southeast 503 579 32,600 2,439 Climbing Kansas City Center
Tue 02:42:24 PM 37.9553 -96.1103 124° Southeast 503 579 35,200 2,195 Climbing Kansas City Center
Tue 02:43:26 PM 37.8725 -95.9539 124° Southeast 493 567 37,100 1,935 Climbing Kansas City Center
Tue 02:44:28 PM 37.7939 -95.8044 124° Southeast 505 581 39,200 1,887 Climbing Kansas City Center
Tue 02:45:30 PM 37.7186 -95.6619 124° Southeast 492 566 41,000 878 Climbing Kansas City Center
Tue 02:46:31 PM 37.6414 -95.5225 125° Southeast 484 557 41,000  Level Kansas City Center
Tue 02:47:33 PM 37.5631 -95.3794 125° Southeast 489 563 41,000  Level Kansas City Center
Tue 02:48:35 PM 37.4706 -95.2078 124° Southeast 491 565 41,000  Level Kansas City Center
Tue 02:49:37 PM 37.3928 -95.0656 125° Southeast 491 565 41,000  Level Kansas City Center
Tue 02:50:39 PM 37.3128 -94.9189 124° Southeast 497 572 41,000  Level Kansas City Center
Tue 02:51:40 PM 37.2325 -94.7728 125° Southeast 503 579 41,000  Level Kansas City Center
Tue 02:52:42 PM 37.1531 -94.6275 124° Southeast 503 579 41,000  Level Kansas City Center
Tue 02:53:44 PM 37.0733 -94.4839 125° Southeast 501 577 41,000  Level Kansas City Center
Tue 02:54:46 PM 36.9933 -94.3397 125° Southeast 501 577 41,000  Level Kansas City Center
Tue 02:55:47 PM 36.9128 -94.1961 125° Southeast 501 577 41,000  Level Kansas City Center
Tue 02:56:49 PM 36.8294 -94.0519 126° Southeast 505 581 41,000  Level Kansas City Center
Tue 02:57:51 PM 36.7333 -93.8811 125° Southeast 501 577 41,000  Level Kansas City Center
Tue 02:58:52 PM 36.6528 -93.7389 125° Southeast 498 573 41,000  Level Kansas City Center
Tue 02:59:54 PM 36.5717 -93.5947 125° Southeast 504 580 41,000  Level Kansas City Center
Tue 03:00:56 PM 36.4914 -93.4531 125° Southeast 503 579 41,000  Level Kansas City Center
Tue 03:01:58 PM 36.4103 -93.3144 126° Southeast 499 574 41,000  Level Kansas City Center
Tue 03:02:49 PM 36.3456 -93.2019 126° Southeast 500 575 41,000  Level Memphis Center
Tue 03:03:50 PM 36.2639 -93.0606 126° Southeast 501 577 41,000  Level Memphis Center
Tue 03:04:52 PM 36.1817 -92.9214 126° Southeast 500 575 41,000  Level Memphis Center
Tue 03:05:54 PM 36.0811 -92.7467 125° Southeast 511 588 41,000  Level Memphis Center
Tue 03:06:56 PM 35.9972 -92.6042 126° Southeast 512 589 41,000  Level Memphis Center
Tue 03:07:57 PM 35.9136 -92.4611 126° Southeast 511 588 41,000  Level Memphis Center
Tue 03:08:59 PM 35.8281 -92.3194 127° Southeast 512 589 41,000  Level Memphis Center
Tue 03:10:01 PM 35.7447 -92.1778 126° Southeast 511 588 41,000  Level Memphis Center
Tue 03:11:03 PM 35.6597 -92.0353 126° Southeast 513 590 41,000  Level Memphis Center
Tue 03:12:04 PM 35.5756 -91.8947 126° Southeast 511 588 41,000  Level Memphis Center
Tue 03:13:06 PM 35.4906 -91.7517 126° Southeast 515 593 41,000  Level Memphis Center
Tue 03:14:08 PM 35.3872 -91.5817 127° Southeast 517 595 41,000  Level Memphis Center
Tue 03:15:10 PM 35.3017 -91.4400 126° Southeast 517 595 41,000  Level Memphis Center
Tue 03:16:12 PM 35.2156 -91.3000 127° Southeast 516 594 41,000  Level Memphis Center
Tue 03:17:13 PM 35.1303 -91.1597 127° Southeast 515 593 41,000  Level Memphis Center
Tue 03:18:15 PM 35.0425 -91.0181 127° Southeast 515 593 41,000  Level Memphis Center
Tue 03:19:17 PM 34.9558 -90.8797 127° Southeast 515 593 41,000  Level Memphis Center
Tue 03:20:19 PM 34.8686 -90.7358 126° Southeast 515 593 41,000  Level Memphis Center
Tue 03:21:20 PM 34.7817 -90.5978 127° Southeast 515 593 41,000  Level Memphis Center
Tue 03:22:22 PM 34.6781 -90.4319 127° Southeast 515 593 41,000  Level Memphis Center
Tue 03:23:24 PM 34.5925 -90.2958 127° Southeast 512 589 41,000  Level Memphis Center
Tue 03:24:26 PM 34.5053 -90.1567 127° Southeast 515 593 41,000  Level Memphis Center
Tue 03:25:28 PM 34.4189 -90.0203 127° Southeast 514 592 41,000  Level Memphis Center
Tue 03:26:29 PM 34.3319 -89.8819 127° Southeast 515 593 41,000  Level Memphis Center
Tue 03:27:31 PM 34.2444 -89.7453 128° Southeast 515 593 41,000  Level Memphis Center
Tue 03:28:33 PM 34.1581 -89.6103 128° Southeast 511 588 41,000  Level Memphis Center
Tue 03:29:35 PM 34.0536 -89.4481 128° Southeast 510 587 41,000  Level Memphis Center
Tue 03:30:37 PM 33.9664 -89.3117 128° Southeast 512 589 41,000  Level Memphis Center
Tue 03:31:39 PM 33.8792 -89.1761 128° Southeast 512 589 41,000  Level Memphis Center
Tue 03:32:41 PM 33.7894 -89.0397 128° Southeast 516 594 41,000  Level Memphis Center
Tue 03:33:42 PM 33.7014 -88.9036 128° Southeast 517 595 41,000  Level Memphis Center
Tue 03:34:44 PM 33.6108 -88.7650 128° Southeast 518 596 41,000  Level Memphis Center
Tue 03:35:46 PM 33.5217 -88.6294 128° Southeast 521 600 41,000  Level Memphis Center
Tue 03:36:48 PM 33.4139 -88.4667 128° Southeast 521 600 41,000  Level Memphis Center
Tue 03:37:50 PM 33.3244 -88.3306 128° Southeast 521 600 41,000  Level Memphis Center
Tue 03:38:52 PM 33.2347 -88.1958 129° Southeast 522 601 41,000  Level Memphis Center
Tue 03:39:54 PM 33.1442 -88.0611 129° Southeast 523 602 41,000  Level Memphis Center
Tue 03:40:55 PM 33.0536 -87.9253 128° Southeast 524 603 41,000  Level Memphis Center
Tue 03:41:57 PM 32.9628 -87.7906 129° Southeast 524 603 41,000  Level Memphis Center
Tue 03:42:59 PM 32.8539 -87.6272 128° Southeast 525 604 41,000  Level Memphis Center
Tue 03:44:01 PM 32.7622 -87.4939 129° Southeast 525 604 41,000  Level Memphis Center
Tue 03:45:11 PM 32.6647 -87.3428 127° Southeast 529 609 41,000  Level Atlanta Center
Tue 03:46:11 PM 32.5678 -87.2108 131° Southeast 529 609 41,000  Level Atlanta Center
Tue 03:47:11 PM 32.4775 -87.0747 128° Southeast 529 609 41,000  Level Atlanta Center
Tue 03:48:11 PM 32.3825 -86.9386 130° Southeast 529 609 41,000  Level Atlanta Center
Tue 03:49:11 PM 32.2917 -86.8081 129° Southeast 528 608 41,000  Level Atlanta Center
Tue 03:50:59 PM 32.1236 -86.5719 130° Southeast 524 603 41,000  Level Jacksonville Center
Tue 03:51:59 PM 32.0314 -86.4383 129° Southeast 519 597 41,000  Level Jacksonville Center
Tue 03:52:59 PM 31.9311 -86.2903 129° Southeast 519 597 41,000  Level Jacksonville Center
Tue 03:53:59 PM 31.8364 -86.1594 130° Southeast 519 597 41,000  Level Jacksonville Center
Tue 03:54:59 PM 31.7456 -86.0294 129° Southeast 519 597 41,000  Level Jacksonville Center
Tue 03:55:59 PM 31.6528 -85.8969 129° Southeast 519 597 41,000  Level Jacksonville Center
Tue 03:56:59 PM 31.5597 -85.7669 130° Southeast 519 597 41,000  Level Jacksonville Center
Tue 03:57:59 PM 31.4686 -85.6400 130° Southeast 519 597 41,000  Level Jacksonville Center
Tue 03:58:59 PM 31.3753 -85.5133 131° Southeast 519 597 41,000 -50 Level Jacksonville Center
Tue 03:59:59 PM 31.2983 -85.3944 127° Southeast 519 597 40,900 -50 Descending Jacksonville Center
Tue 04:00:59 PM 31.2069 -85.2706 131° Southeast 514 592 40,900  Level Jacksonville Center
Tue 04:01:59 PM 31.1153 -85.1419 130° Southeast 514 592 40,900  Level Jacksonville Center
Tue 04:02:59 PM 31.0233 -85.0139 130° Southeast 514 592 40,900  Level Jacksonville Center
Tue 04:03:59 PM 30.9294 -84.8881 131° Southeast 514 592 40,900 50 Level Jacksonville Center
Tue 04:04:59 PM 30.8250 -84.7481 131° Southeast 514 592 41,000  Climbing Jacksonville Center
Tue 04:05:59 PM 30.7453 -84.6328 129° Southeast 519 597 40,900 -50 Descending Jacksonville Center
Tue 04:06:59 PM 30.6508 -84.5081 131° Southeast 519 597 40,900 50 Level Jacksonville Center
Tue 04:07:59 PM 30.5667 -84.3956 131° Southeast 514 592 41,000  Climbing Jacksonville Center
Tue 04:08:59 PM 30.4444 -84.2997 146° Southeast 487 560 40,900 -50 Descending Jacksonville Center
Tue 04:09:59 PM 30.3264 -84.2258 152° Southeast 487 560 40,900  Level Jacksonville Center
Tue 04:10:59 PM 30.1997 -84.1422 150° Southeast 477 549 40,900  Level Jacksonville Center
Tue 04:11:59 PM 30.0836 -84.0689 151° Southeast 477 549 40,900  Level Jacksonville Center
Tue 04:12:59 PM 29.9675 -83.9906 150° Southeast 477 549 40,900  Level Jacksonville Center
Tue 04:13:59 PM 29.8511 -83.9175 151° Southeast 477 549 40,900  Level Jacksonville Center
Tue 04:14:59 PM 29.7306 -83.8397 151° Southeast 477 549 40,900  Level Jacksonville Center
Tue 04:15:59 PM 29.6142 -83.7644 151° Southeast 477 549 40,900  Level Jacksonville Center
Tue 04:16:59 PM 29.4978 -83.6919 152° Southeast 477 549 40,900  Level Jacksonville Center
Tue 04:17:59 PM 29.3814 -83.6147 150° Southeast 482 555 40,900  Level Jacksonville Center
Tue 04:18:59 PM 29.2650 -83.5400 151° Southeast 482 555 40,900  Level Jacksonville Center
Tue 04:19:59 PM 29.1483 -83.4656 151° Southeast 482 555 40,900 -150 Level Jacksonville Center
Tue 04:20:59 PM 29.0422 -83.3961 150° Southeast 482 555 40,600 -450 Descending Jacksonville Center
Tue 04:21:59 PM 28.9233 -83.3219 151° Southeast 482 555 40,000 -300 Descending Jacksonville Center
Tue 04:22:59 PM 28.8047 -83.2528 153° Southeast 477 549 40,000  Level Jacksonville Center
Tue 04:23:59 PM 28.6881 -83.1836 153° Southeast 477 549 40,000  Level Jacksonville Center
Tue 04:24:59 PM 28.5692 -83.1125 152° Southeast 472 543 40,000 247 Level Jacksonville Center
Tue 04:27:38 PM 28.2414 -82.9217 153° Southeast 493 567 40,900 247 Climbing Miami Center
Tue 04:28:38 PM 28.1214 -82.8494 152° Southeast 488 562 40,900  Level Miami Center
Tue 04:29:38 PM 28.0136 -82.7825 151° Southeast 482 555 40,900  Level Miami Center
Tue 04:30:38 PM 27.8789 -82.7144 156° South 487 560 40,900 50 Level Miami Center
Tue 04:31:38 PM 27.7678 -82.6758 163° South 478 550 41,000 50 Climbing Miami Center
Tue 04:32:38 PM 27.6264 -82.6125 158° South 478 550 41,000  Level Miami Center
Tue 04:33:38 PM 27.5067 -82.5761 165° South 439 505 41,000  Level Miami Center
Tue 04:34:38 PM 27.3853 -82.5328 162° South 459 528 41,000  Level Miami Center
Tue 04:35:38 PM 27.2619 -82.4869 162° South 464 534 41,000 -50 Level Miami Center
Tue 04:36:38 PM 27.1406 -82.4389 161° South 464 534 40,900 -50 Descending Miami Center
Tue 04:37:38 PM 27.0192 -82.3958 162° South 459 528 40,900 -350 Level Miami Center
Tue 04:38:38 PM 26.9061 -82.3533 161° South 465 535 40,200 -1,050 Descending Miami Center
Tue 04:39:38 PM 26.7844 -82.3128 163° South 465 535 38,800 -1,600 Descending Miami Center
Tue 04:40:38 PM 26.6589 -82.2628 160° South 470 541 37,000 -1,950 Descending Miami Center
Tue 04:41:38 PM 26.5364 -82.1875 151° Southeast 482 555 34,900 -2,300 Descending Miami Center
Tue 04:42:38 PM 26.4361 -82.0808 136° Southeast 490 564 32,400 -2,500 Descending Miami Center
Tue 04:43:38 PM 26.3356 -81.9700 135° Southeast 501 577 29,900 -2,800 Descending Miami Center
Tue 04:44:38 PM 26.2289 -81.8567 136° Southeast 495 570 26,800 -3,050 Descending Miami Center
Tue 04:45:38 PM 26.1450 -81.7442 130° Southeast 476 548 23,800 -3,000 Descending Miami Center
Tue 04:46:38 PM 26.0992 -81.6083 111° Southeast 464 534 20,800 -3,000 Descending Miami Center
Tue 04:47:38 PM 26.0575 -81.4794 110° East 451 519 17,800 -2,750 Descending Miami Center
Tue 04:48:38 PM 26.0175 -81.3578 110° East 435 501 15,300 -2,400 Descending Miami Center
Tue 04:49:38 PM 25.9814 -81.2408 109° East 410 472 13,000 -2,300 Descending Miami Center
Tue 04:50:38 PM 25.9469 -81.1311 109° East 391 450 10,700 -2,074 Descending Miami Center
Tue 04:50:59 PM 25.9272 -81.0911 119° Southeast 382 440 10,200 -700 Descending Miami Center
Tue 04:51:38 PM 25.9103 -81.0258 106° East 378 435 10,000 -184 Descending Miami Center
Tue 04:52:37 PM 25.8878 -80.9328 105° East 310 357 9,900 -200 Descending Miami Center
Tue 04:52:38 PM 25.8922 -80.9306 24° Northeast 344 396 9,800 -1,745 Descending Miami Center
Tue 04:53:32 PM 25.8925 -80.8453 90° East 297 342 8,300 -1,700 Descending Miami Center
Tue 04:53:38 PM 25.8967 -80.8361 63° Northeast 312 359 8,100 -1,818 Descending Miami Center
Tue 04:54:38 PM 25.8992 -80.7461 88° East 312 359 6,300 -1,672 Descending Miami Center
Tue 04:54:39 PM 25.8950 -80.7436 152° Southeast 299 344 6,400 -1,600 Climbing Miami Center
Tue 04:55:38 PM 25.9014 -80.6583 85° East 300 345 4,700 -1,770 Descending Miami Center
Tue 04:55:40 PM 25.8975 -80.6514 122° Southeast 279 321 4,600 -1,714 Descending Miami Center
Tue 04:56:41 PM 25.8997 -80.5683 88° East 272 313 2,900 -1,322 Descending Miami Center
Tue 04:57:38 PM 25.9033 -80.5014 87° East 267 307 2,000 -1,180 Descending Miami Center
Tue 04:57:42 PM 25.9017 -80.4875 98° East 246 283 1,700 -369 Descending Miami Center
Tue 04:58:43 PM 25.9033 -80.4231 88° East 184 212 1,600 -52 Descending Miami Center
Tue 04:59:38 PM 25.9086 -80.3792 82° East 207 238 1,600 -197 Level Miami Center
Tue 04:59:44 PM 25.9044 -80.3675 112° Southeast 165 190 1,400 -800 Descending Miami Center
Tue 05:00:38 PM 25.9094 -80.3331 81° East 171 197 800 -750 Descending Miami Center
Tue 05:00:40 PM 25.9097 -80.3261 87° East 144 166 700 -3,000 Descending Miami Center
Tue 05:02:00 PM 25.9074 -80.2782 90° East  Level Estimated
Tue 05:09:00 PM 25.9074 -80.2782 90° East  Level Estimated

Login

Don't have an account? Register now (free) for customized features, flight alerts, and more!